Terminal Aerodrome Forecast
Issued by NWS

Home | Current Version | Previous Version | Text Only | Print | Product List | Glossary On
Versions: 1 2 3 4 5 6 7 8 9 10 11 12 13 14 15 16
000
FTUS44 KTSA 201100
TAFMLC
TAF
KMLC 201139Z 2012/2112 00000KT P6SM SCT005 BKN070
      TEMPO 2012/2014 5SM BR
     FM201500 18008KT P6SM BKN070
     FM201800 18006KT P6SM BKN040
     FM210100 14002KT P6SM SCT150=

USA.gov is the U.S. government's official web portal to all federal, state and local government web resources and services.